createdAt,value
2019-06-01T00:00:46.382Z,8.55
2019-06-01T00:03:21.202Z,7.95
2019-06-01T00:05:52.982Z,11.80
2019-06-01T00:08:25.316Z,10.03
2019-06-01T00:10:57.059Z,10.43
2019-06-01T00:13:30.503Z,11.12
2019-06-01T00:16:02.516Z,10.00
2019-06-01T00:18:35.558Z,9.13
2019-06-01T00:21:07.317Z,11.35
2019-06-01T00:23:40.295Z,12.00
2019-06-01T00:26:13.299Z,10.45
2019-06-01T00:28:45.797Z,15.00
2019-06-01T00:31:20.595Z,9.73
2019-06-01T00:33:52.372Z,11.93
2019-06-01T00:36:24.087Z,9.60
2019-06-01T00:38:55.826Z,12.70
2019-06-01T00:41:29.469Z,13.18
2019-06-01T00:44:03.095Z,10.45
2019-06-01T00:46:35.733Z,14.43
2019-06-01T00:49:07.507Z,10.50
2019-06-01T00:51:39.244Z,12.37
2019-06-01T00:54:12.655Z,7.87
2019-06-01T00:56:45.583Z,8.10
2019-06-01T00:59:19.206Z,10.70
2019-06-01T01:01:52.378Z,8.40
2019-06-01T01:04:24.506Z,9.35
2019-06-01T01:06:58.232Z,12.25
2019-06-01T01:09:31.592Z,8.98
2019-06-01T01:12:03.404Z,16.12
2019-06-01T01:14:36.131Z,10.13
2019-06-01T01:17:07.917Z,6.03
2019-06-01T01:19:39.659Z,11.30
2019-06-01T01:22:11.394Z,9.10
2019-06-01T01:24:43.093Z,8.75
2019-06-01T01:27:15.905Z,12.65
2019-06-01T01:29:48.883Z,9.90
2019-06-01T01:32:20.860Z,8.78
2019-06-01T01:34:54.222Z,10.63
2019-06-01T01:37:25.972Z,12.35
2019-06-01T01:39:58.558Z,7.62
2019-06-01T01:42:30.944Z,11.80
2019-06-01T01:45:02.818Z,8.13
2019-06-01T01:47:34.893Z,15.03
2019-06-01T01:50:08.267Z,11.38
2019-06-01T01:52:40.030Z,17.17
2019-06-01T01:55:12.278Z,13.80
2019-06-01T01:57:44.072Z,13.62
2019-06-01T02:00:18.482Z,7.95
2019-06-01T02:02:51.756Z,11.95
2019-06-01T02:05:23.776Z,10.30
2019-06-01T02:07:57.189Z,11.43
2019-06-01T02:10:30.212Z,9.00
2019-06-01T02:13:03.886Z,13.45
2019-06-01T02:15:36.102Z,11.53
2019-06-01T02:18:09.156Z,13.43
2019-06-01T02:20:41.023Z,10.93
2019-06-01T02:23:14.425Z,14.63
2019-06-01T02:25:46.183Z,9.35
2019-06-01T02:28:17.931Z,10.55
2019-06-01T02:30:49.981Z,11.80
2019-06-01T02:33:21.790Z,8.53
2019-06-01T02:35:54.341Z,7.53
2019-06-01T02:38:26.798Z,12.40
2019-06-01T02:41:01.041Z,13.03
2019-06-01T02:43:32.991Z,14.03
2019-06-01T02:46:07.172Z,10.78
2019-06-01T02:48:38.161Z,10.95
2019-06-01T02:51:11.801Z,8.20
2019-06-01T02:53:45.412Z,7.15
2019-06-01T02:56:18.887Z,12.05
2019-06-01T02:58:51.988Z,9.78
2019-06-01T03:01:32.891Z,12.63
2019-06-01T03:04:08.990Z,13.08
2019-06-01T03:06:43.115Z,17.73
2019-06-01T03:09:14.843Z,14.03
2019-06-01T03:11:46.758Z,12.25
2019-06-01T03:14:18.568Z,11.50
2019-06-01T03:16:51.910Z,12.00
2019-06-01T03:19:25.344Z,12.03
2019-06-01T03:22:03.755Z,10.00
2019-06-01T03:24:43.117Z,10.20
2019-06-01T03:27:16.523Z,14.55
2019-06-01T03:29:57.316Z,14.07
2019-06-01T03:32:36.839Z,9.75
2019-06-01T03:35:04.636Z,13.40
2019-06-01T03:37:36.548Z,6.40
2019-06-01T03:40:19.731Z,8.90
2019-06-01T03:42:44.946Z,16.02
2019-06-01T03:45:16.709Z,11.33
2019-06-01T03:47:51.395Z,10.93
2019-06-01T03:50:23.136Z,11.38
2019-06-01T03:52:55.726Z,9.38
2019-06-01T03:55:27.781Z,11.43
2019-06-01T03:58:01.352Z,13.30
2019-06-01T04:00:33.104Z,8.23
2019-06-01T04:03:07.190Z,9.23
2019-06-01T04:05:39.051Z,11.53
2019-06-01T04:08:11.711Z,9.25
2019-06-01T04:10:43.464Z,8.23
2019-06-01T04:13:16.884Z,11.38
2019-06-01T04:15:48.750Z,8.83
2019-06-01T04:18:20.732Z,9.10
2019-06-01T04:20:52.484Z,11.97
2019-06-01T04:23:24.446Z,8.30
2019-06-01T04:25:58.133Z,11.08
2019-06-01T04:28:34.440Z,11.68
2019-06-01T04:31:06.557Z,9.25
2019-06-01T04:33:38.448Z,9.93
2019-06-01T04:36:13.094Z,8.38
2019-06-01T04:38:44.964Z,7.72
2019-06-01T04:41:18.369Z,11.40
2019-06-01T04:43:51.753Z,12.15
2019-06-01T04:46:23.516Z,11.65
2019-06-01T04:48:55.333Z,12.03
2019-06-01T04:51:27.140Z,13.32
2019-06-01T04:54:00.497Z,9.05
2019-06-01T04:56:32.237Z,10.05
2019-06-01T04:59:04.905Z,8.95
2019-06-01T05:01:38.316Z,14.80
2019-06-01T05:04:11.176Z,11.68
2019-06-01T05:06:43.102Z,16.02
2019-06-01T05:09:16.768Z,10.93
2019-06-01T05:11:48.503Z,12.68
2019-06-01T05:14:22.893Z,13.45
2019-06-01T05:16:54.701Z,15.43
2019-06-01T05:19:30.282Z,15.43
2019-06-01T05:22:02.054Z,13.03
2019-06-01T05:24:33.841Z,13.98
2019-06-01T05:27:09.015Z,11.05
2019-06-01T05:29:40.907Z,11.78
2019-06-01T05:32:14.656Z,11.78
2019-06-01T05:34:46.610Z,11.85
2019-06-01T05:37:20.012Z,11.57
2019-06-01T05:39:53.096Z,9.03
2019-06-01T05:42:24.798Z,7.47
2019-06-01T05:44:58.204Z,13.65
2019-06-01T05:47:30.346Z,8.85
2019-06-01T05:50:04.174Z,8.25
2019-06-01T05:52:37.570Z,10.30
2019-06-01T05:55:10.355Z,11.28
2019-06-01T05:57:42.143Z,14.18
2019-06-01T06:00:15.051Z,11.43
2019-06-01T06:02:48.123Z,8.48
2019-06-01T06:05:22.829Z,12.03
2019-06-01T06:07:58.019Z,10.65
2019-06-01T06:10:33.418Z,14.53
2019-06-01T06:13:08.523Z,9.43
2019-06-01T06:15:40.305Z,7.15
2019-06-01T06:18:12.088Z,8.33
2019-06-01T06:20:43.887Z,6.12
2019-06-01T06:23:16.449Z,10.45
2019-06-01T06:25:49.668Z,6.70
2019-06-01T06:28:23.241Z,7.58
2019-06-01T06:30:57.911Z,8.10
2019-06-01T06:33:29.858Z,9.80
2019-06-01T06:36:03.298Z,8.30
2019-06-01T06:38:35.175Z,10.43
2019-06-01T06:41:06.899Z,7.12
2019-06-01T06:43:38.694Z,21.73
2019-06-01T06:46:10.411Z,9.98
2019-06-01T06:48:46.322Z,11.15
2019-06-01T06:51:19.246Z,11.65
2019-06-01T06:53:54.119Z,9.10
2019-06-01T06:56:26.229Z,11.38
2019-06-01T06:59:00.006Z,12.10
2019-06-01T07:01:31.737Z,6.70
2019-06-01T07:04:12.850Z,9.38
2019-06-01T07:06:40.001Z,8.45
2019-06-01T07:09:13.821Z,9.18
2019-06-01T07:11:47.401Z,8.10
2019-06-01T07:14:19.364Z,9.58
2019-06-01T07:16:51.924Z,6.53
2019-06-01T07:19:25.834Z,9.70
2019-06-01T07:22:00.821Z,9.03
2019-06-01T07:24:32.612Z,5.97
2019-06-01T07:27:04.366Z,7.47
2019-06-01T07:29:37.105Z,13.05
2019-06-01T07:32:09.063Z,9.18
2019-06-01T07:34:43.101Z,8.48
2019-06-01T07:37:15.577Z,7.78
2019-06-01T07:39:48.673Z,5.62
2019-06-01T07:42:23.501Z,10.15
2019-06-01T07:44:53.967Z,7.97
2019-06-01T07:47:27.214Z,9.00
2019-06-01T07:49:59.804Z,5.72
2019-06-01T07:52:32.416Z,9.20
2019-06-01T07:55:04.444Z,11.63
2019-06-01T07:57:36.198Z,17.10
2019-06-01T08:00:08.762Z,13.80
2019-06-01T08:02:40.544Z,9.73
2019-06-01T08:05:12.435Z,9.85
2019-06-01T08:07:46.680Z,10.50
2019-06-01T08:10:19.709Z,14.05
2019-06-01T08:12:52.517Z,8.58
2019-06-01T08:15:25.799Z,7.28
2019-06-01T08:17:57.731Z,6.95
2019-06-01T08:20:30.353Z,8.23
2019-06-01T08:23:02.169Z,9.13
2019-06-01T08:25:35.752Z,7.80
2019-06-01T08:28:07.651Z,6.40
2019-06-01T08:30:43.979Z,7.45
2019-06-01T08:33:15.831Z,7.00
2019-06-01T08:35:49.650Z,4.17
2019-06-01T08:38:21.534Z,4.25
2019-06-01T08:40:54.976Z,6.92
2019-06-01T08:43:27.660Z,11.43
2019-06-01T08:45:59.406Z,4.95
2019-06-01T08:48:33.951Z,4.67
2019-06-01T08:51:06.507Z,7.90
2019-06-01T08:53:38.396Z,6.00
2019-06-01T08:56:10.226Z,5.85
2019-06-01T08:58:41.960Z,7.22
2019-06-01T09:01:13.743Z,5.47
2019-06-01T09:03:47.570Z,5.28
2019-06-01T09:06:19.298Z,4.60
2019-06-01T09:08:51.075Z,5.30
2019-06-01T09:11:27.033Z,3.40
2019-06-01T09:14:00.297Z,5.10
2019-06-01T09:16:36.994Z,5.80
2019-06-01T09:19:11.354Z,4.67
2019-06-01T09:21:42.234Z,6.42
2019-06-01T09:24:14.273Z,4.35
2019-06-01T09:26:47.796Z,7.80
2019-06-01T09:29:19.841Z,3.60
2019-06-01T09:31:51.991Z,9.73
2019-06-01T09:34:23.816Z,3.92
2019-06-01T09:36:55.954Z,5.33
2019-06-01T09:39:29.450Z,6.12
2019-06-01T09:42:01.378Z,5.12
2019-06-01T09:44:33.588Z,8.58
2019-06-01T09:47:05.544Z,7.47
2019-06-01T09:49:38.072Z,6.20
2019-06-01T09:52:20.462Z,4.83
2019-06-01T09:57:47.445Z,7.03
2019-06-01T10:00:23.365Z,3.92
2019-06-01T10:02:55.618Z,4.22
2019-06-01T10:09:20.839Z,3.17
2019-06-01T10:11:59.093Z,2.92
2019-06-01T10:14:34.829Z,2.45
2019-06-01T10:17:07.994Z,6.97
2019-06-01T10:19:39.830Z,4.12
2019-06-01T10:22:13.617Z,4.58
2019-06-01T10:24:45.395Z,3.75
2019-06-01T10:27:17.134Z,6.62
2019-06-01T10:29:52.815Z,4.85
2019-06-01T10:32:24.699Z,6.45
2019-06-01T10:34:56.457Z,5.78
2019-06-01T10:37:28.443Z,7.58
2019-06-01T10:40:02.105Z,5.45
2019-06-01T10:42:35.994Z,7.20
2019-06-01T10:45:07.978Z,6.45
2019-06-01T10:47:43.312Z,7.85
2019-06-01T10:50:17.317Z,9.68
2019-06-01T10:52:49.593Z,5.92
2019-06-01T10:55:22.326Z,6.22
2019-06-01T10:57:55.913Z,6.83
2019-06-01T11:00:38.738Z,5.75
2019-06-01T11:03:01.542Z,3.87
2019-06-01T11:05:34.911Z,3.17
2019-06-01T11:08:06.743Z,6.78
2019-06-01T11:10:39.101Z,8.85
2019-06-01T11:13:11.300Z,5.28
2019-06-01T11:15:45.416Z,4.20
2019-06-01T11:18:17.245Z,3.67
2019-06-01T11:20:50.607Z,6.47
2019-06-01T11:23:22.404Z,4.15
2019-06-01T11:25:54.727Z,4.12
2019-06-01T11:28:27.660Z,3.22
2019-06-01T11:30:59.392Z,5.75
2019-06-01T11:33:31.544Z,4.83
2019-06-01T11:36:04.977Z,2.70
2019-06-01T11:38:38.337Z,6.35
2019-06-01T11:41:10.281Z,3.30
2019-06-01T11:43:45.886Z,4.28
2019-06-01T11:46:17.230Z,6.22
2019-06-01T11:48:50.025Z,9.58
2019-06-01T11:51:21.845Z,3.35
2019-06-01T11:53:53.648Z,10.55
2019-06-01T11:56:27.354Z,4.17
2019-06-01T11:58:59.159Z,4.22
2019-06-01T12:01:30.964Z,5.65
2019-06-01T12:04:04.396Z,6.25
2019-06-01T12:06:37.872Z,3.30
2019-06-01T12:09:11.140Z,8.10
2019-06-01T12:11:44.148Z,4.40
2019-06-01T12:14:16.059Z,4.92
2019-06-01T12:16:47.821Z,3.55
2019-06-01T12:19:19.630Z,3.75
2019-06-01T12:21:51.494Z,6.53
2019-06-01T12:24:25.704Z,33.75
2019-06-01T12:26:58.402Z,5.17
2019-06-01T12:29:31.937Z,3.42
2019-06-01T12:32:03.880Z,5.62
2019-06-01T12:34:35.633Z,6.97
2019-06-01T12:37:07.398Z,5.20
2019-06-01T12:39:40.389Z,8.65
2019-06-01T12:42:12.237Z,10.63
2019-06-01T12:44:45.789Z,4.83
2019-06-01T12:47:19.371Z,6.85
2019-06-01T12:49:52.605Z,7.28
2019-06-01T12:52:24.414Z,5.17
2019-06-01T12:55:00.344Z,4.15
2019-06-01T12:57:32.237Z,6.75
2019-06-01T13:00:03.987Z,4.03
2019-06-01T13:02:36.979Z,4.22
2019-06-01T13:05:08.712Z,3.33
2019-06-01T13:07:57.475Z,3.10
2019-06-01T13:10:19.308Z,4.50
2019-06-01T13:12:52.252Z,3.40
2019-06-01T13:15:25.252Z,5.67
2019-06-01T13:17:57.081Z,3.60
2019-06-01T13:20:30.753Z,6.97
2019-06-01T13:23:04.422Z,5.80
2019-06-01T13:25:41.451Z,3.47
2019-06-01T13:28:38.003Z,8.53
2019-06-01T13:31:07.546Z,6.03
2019-06-01T13:33:42.224Z,6.22
2019-06-01T13:36:16.021Z,4.58
2019-06-01T13:38:48.795Z,5.50
2019-06-01T13:41:20.641Z,6.97
2019-06-01T13:43:53.548Z,6.05
2019-06-01T13:46:25.367Z,4.60
2019-06-01T13:48:58.436Z,3.83
2019-06-01T13:51:30.685Z,3.20
2019-06-01T13:54:02.471Z,8.73
2019-06-01T13:56:36.182Z,3.45
2019-06-01T13:59:09.210Z,3.05
2019-06-01T14:01:41.090Z,3.70
2019-06-01T14:04:13.307Z,2.00
2019-06-01T14:06:45.216Z,4.62
2019-06-01T14:09:21.620Z,1.85
2019-06-01T14:11:51.711Z,1.75
2019-06-01T14:14:23.450Z,4.53
2019-06-01T14:16:57.104Z,2.08
2019-06-01T14:19:28.837Z,11.33
2019-06-01T14:22:00.620Z,7.00
2019-06-01T14:24:42.091Z,5.87
2019-06-01T14:27:10.037Z,1.95
2019-06-01T14:29:41.775Z,1.47
2019-06-01T14:32:17.668Z,3.70
2019-06-01T14:34:51.086Z,6.95
2019-06-01T14:37:24.695Z,3.00
2019-06-01T14:39:58.307Z,2.12
2019-06-01T14:42:30.294Z,7.05
2019-06-01T14:45:02.687Z,2.72
2019-06-01T14:47:40.298Z,3.83
2019-06-01T14:50:12.173Z,3.27
2019-06-01T14:52:45.642Z,3.30
2019-06-01T14:55:17.586Z,3.33
2019-06-01T14:57:56.109Z,2.58
2019-06-01T15:00:28.478Z,1.37
2019-06-01T15:03:04.643Z,3.87
2019-06-01T15:05:59.279Z,4.15
2019-06-01T15:08:36.784Z,3.25
2019-06-01T15:11:08.553Z,1.72
2019-06-01T15:13:40.285Z,2.27
2019-06-01T15:16:12.196Z,1.72
2019-06-01T15:18:43.963Z,3.65
2019-06-01T15:21:17.808Z,1.42
2019-06-01T15:23:49.820Z,2.87
2019-06-01T15:26:23.018Z,1.30
2019-06-01T15:28:54.809Z,6.33
2019-06-01T15:31:26.687Z,4.53
2019-06-01T15:33:59.433Z,1.40
2019-06-01T15:36:31.944Z,1.87
2019-06-01T15:39:04.588Z,6.92
2019-06-01T15:41:38.342Z,1.70
2019-06-01T15:44:11.882Z,1.20
2019-06-01T15:46:43.708Z,1.37
2019-06-01T15:49:15.900Z,1.90
2019-06-01T15:51:49.374Z,3.22
2019-06-01T15:54:21.249Z,3.47
2019-06-01T15:56:54.270Z,3.45
2019-06-01T15:59:26.808Z,3.20
2019-06-01T16:01:59.288Z,4.92
2019-06-01T16:04:34.796Z,2.62
2019-06-01T16:07:06.643Z,3.08
2019-06-01T16:09:43.141Z,1.72
2019-06-01T16:12:14.841Z,2.87
2019-06-01T16:14:48.266Z,1.72
2019-06-01T16:17:20.073Z,3.10
2019-06-01T16:19:51.895Z,2.95
2019-06-01T16:22:25.353Z,1.17
2019-06-01T16:24:58.150Z,1.25
2019-06-01T16:27:30.036Z,1.30
2019-06-01T16:30:06.464Z,0.98
2019-06-01T16:32:47.596Z,2.62
2019-06-01T16:35:34.762Z,2.15
2019-06-01T16:38:19.499Z,0.70
2019-06-01T16:41:03.427Z,2.58
2019-06-01T16:43:51.439Z,2.42
2019-06-01T16:46:48.908Z,0.93
2019-06-01T16:49:28.130Z,2.87
2019-06-01T16:52:12.291Z,2.62
2019-06-01T16:54:42.717Z,1.20
2019-06-01T16:57:20.550Z,1.27
2019-06-01T17:00:00.328Z,2.52
2019-06-01T17:02:43.243Z,1.07
2019-06-01T17:05:22.640Z,2.20
2019-06-01T17:07:59.194Z,2.90
2019-06-01T17:10:43.677Z,2.77
2019-06-01T17:13:24.990Z,1.90
2019-06-01T17:15:57.013Z,1.35
2019-06-01T17:18:32.451Z,1.02
2019-06-01T17:21:05.498Z,1.70
2019-06-01T17:23:37.305Z,2.47
2019-06-01T17:26:09.023Z,1.65
2019-06-01T17:28:40.745Z,1.62
2019-06-01T17:31:16.258Z,2.42
2019-06-01T17:33:49.795Z,1.87
2019-06-01T17:36:23.930Z,14.45
2019-06-01T17:38:55.763Z,4.40
2019-06-01T17:41:27.592Z,3.77
2019-06-01T17:44:00.473Z,2.95
2019-06-01T17:46:43.346Z,1.65
2019-06-01T17:49:08.513Z,1.45
2019-06-01T17:51:41.978Z,3.47
2019-06-01T17:54:15.366Z,2.00
2019-06-01T17:56:48.723Z,2.92
2019-06-01T17:59:20.432Z,2.75
2019-06-01T18:01:52.193Z,2.87
2019-06-01T18:04:24.019Z,3.50
2019-06-01T18:06:55.789Z,2.35
2019-06-01T18:09:29.614Z,4.53
2019-06-01T18:12:03.924Z,3.83
2019-06-01T18:14:35.859Z,1.60
2019-06-01T18:17:08.269Z,3.80
2019-06-01T18:19:41.871Z,3.77
2019-06-01T18:22:13.592Z,2.98
2019-06-01T18:24:45.355Z,2.12
2019-06-01T18:27:19.721Z,2.05
2019-06-01T18:29:51.424Z,7.45
2019-06-01T18:32:23.198Z,1.92
2019-06-01T18:35:00.052Z,4.10
2019-06-01T18:37:33.533Z,3.85
2019-06-01T18:40:07.783Z,4.92
2019-06-01T18:42:40.971Z,3.47
2019-06-01T18:45:13.645Z,4.75
2019-06-01T18:47:47.214Z,5.03
2019-06-01T18:50:18.947Z,6.87
2019-06-01T18:52:51.214Z,3.05
2019-06-01T18:55:27.437Z,6.47
2019-06-01T18:58:00.153Z,4.40
2019-06-01T19:00:33.546Z,2.80
2019-06-01T19:03:07.008Z,8.00
2019-06-01T19:05:39.214Z,11.68
2019-06-01T19:08:11.723Z,5.90
2019-06-01T19:10:43.994Z,6.33
2019-06-01T19:13:15.968Z,11.68
2019-06-01T19:15:49.529Z,10.45
2019-06-01T19:18:21.290Z,5.10
2019-06-01T19:20:53.072Z,5.22
2019-06-01T19:23:26.434Z,5.20
2019-06-01T19:26:00.914Z,3.70
2019-06-01T19:28:32.619Z,4.70
2019-06-01T19:31:04.505Z,5.50
2019-06-01T19:33:36.321Z,3.05
2019-06-01T19:36:08.918Z,4.97
2019-06-01T19:38:41.247Z,10.85
2019-06-01T19:41:15.473Z,7.12
2019-06-01T19:43:48.951Z,3.72
2019-06-01T19:46:20.691Z,7.08
2019-06-01T19:48:52.502Z,7.00
2019-06-01T19:51:24.755Z,3.85
2019-06-01T19:53:58.385Z,5.67
2019-06-01T19:56:32.542Z,6.58
2019-06-01T19:59:04.323Z,5.97
2019-06-01T20:01:37.671Z,17.37
2019-06-01T20:04:10.421Z,22.25
2019-06-01T20:06:44.875Z,8.35
2019-06-01T20:09:17.160Z,4.50
2019-06-01T20:12:01.313Z,4.45
2019-06-01T20:14:24.480Z,6.53
2019-06-01T20:16:56.263Z,10.85
2019-06-01T20:19:29.280Z,5.95
2019-06-01T20:22:02.762Z,4.87
2019-06-01T20:24:34.554Z,7.22
2019-06-01T20:27:07.958Z,6.95
2019-06-01T20:29:39.675Z,13.05
2019-06-01T20:32:13.639Z,12.40
2019-06-01T20:34:47.569Z,9.78
2019-06-01T20:37:20.165Z,5.10
2019-06-01T20:39:52.003Z,9.73
2019-06-01T20:42:32.136Z,7.00
2019-06-01T20:44:57.709Z,6.20
2019-06-01T20:47:31.773Z,6.72
2019-06-01T20:50:03.954Z,3.70
2019-06-01T20:52:35.746Z,3.52
2019-06-01T20:55:08.356Z,6.37
2019-06-01T20:57:40.219Z,8.48
2019-06-01T21:00:15.964Z,7.60
2019-06-01T21:02:47.948Z,7.87
2019-06-01T21:05:22.110Z,8.00
2019-06-01T21:07:56.983Z,6.58
2019-06-01T21:10:29.386Z,11.20
2019-06-01T21:13:01.467Z,5.42
2019-06-01T21:15:33.331Z,10.20
2019-06-01T21:18:05.043Z,8.90
2019-06-01T21:20:36.796Z,6.92
2019-06-01T21:23:08.502Z,5.15
2019-06-01T21:25:42.677Z,8.53
2019-06-01T21:28:16.388Z,6.40
2019-06-01T21:30:48.235Z,7.22
2019-06-01T21:33:24.953Z,6.83
2019-06-01T21:36:04.897Z,6.90
2019-06-01T21:38:38.362Z,12.58
2019-06-01T21:41:10.366Z,4.33
2019-06-01T21:43:42.113Z,8.33
2019-06-01T21:46:17.552Z,10.50
2019-06-01T21:48:49.599Z,11.05
2019-06-01T21:51:24.004Z,7.67
2019-06-01T21:54:07.506Z,8.75
2019-06-01T21:56:40.862Z,10.45
2019-06-01T21:59:18.461Z,10.13
2019-06-01T22:01:50.238Z,6.35
2019-06-01T22:04:25.329Z,11.43
2019-06-01T22:06:58.410Z,11.78
2019-06-01T22:09:30.129Z,9.50
2019-06-01T22:12:01.867Z,13.78
2019-06-01T22:14:38.051Z,8.05
2019-06-01T22:17:13.028Z,9.08
2019-06-01T22:19:44.825Z,6.75
2019-06-01T22:22:17.507Z,7.22
2019-06-01T22:24:49.384Z,8.68
2019-06-01T22:27:22.174Z,9.65
2019-06-01T22:29:54.176Z,6.42
2019-06-01T22:32:29.217Z,9.93
2019-06-01T22:35:01.183Z,5.85
2019-06-01T22:37:35.312Z,6.30
2019-06-01T22:40:07.722Z,5.78
2019-06-01T22:42:41.470Z,8.78
2019-06-01T22:45:16.973Z,5.65
2019-06-01T22:47:50.232Z,4.22
2019-06-01T22:50:22.859Z,5.47
2019-06-01T22:52:55.161Z,7.05
2019-06-01T22:55:28.891Z,8.98
2019-06-01T22:58:02.462Z,6.72
2019-06-01T23:00:36.544Z,9.23
2019-06-01T23:03:10.045Z,5.22
2019-06-01T23:05:44.720Z,4.92
2019-06-01T23:08:17.399Z,5.55
2019-06-01T23:10:53.247Z,8.95
2019-06-01T23:13:28.220Z,6.60
2019-06-01T23:16:00.179Z,8.15
2019-06-01T23:18:35.315Z,6.25
2019-06-01T23:21:07.912Z,11.60
2019-06-01T23:23:42.615Z,7.25
2019-06-01T23:26:15.724Z,9.15
2019-06-01T23:28:47.594Z,11.33
2019-06-01T23:31:19.977Z,7.25
2019-06-01T23:33:55.601Z,6.15
2019-06-01T23:36:28.849Z,8.00
2019-06-01T23:39:01.152Z,8.53
2019-06-01T23:41:36.228Z,5.78
2019-06-01T23:44:12.150Z,8.58
2019-06-01T23:46:44.460Z,9.20
2019-06-01T23:49:16.965Z,9.55
2019-06-01T23:51:48.906Z,10.72
2019-06-01T23:54:21.963Z,8.65
2019-06-01T23:56:54.092Z,13.43
2019-06-01T23:59:30.797Z,14.55
